Terminal Aerodrome Forecast
Issued by NWS Jackson, MS

Home | Current Version | Previous Version | Text Only | Print | Product List | Glossary On
Versions: 1 2 3 4 5 6 7 8 9 10 11 12
000
FTUS44 KJAN 282300
TAFJAN
TAF
KJAN 282334Z 2900/2924 VRB03KT P6SM SCT080 SCT120
     FM291300 15005KT P6SM SCT040 SCT250
     FM292100 13007KT P6SM VCTS BKN050CB=

USA.gov is the U.S. government's official web portal to all federal, state and local government web resources and services.